KLEB/LEB METAR and TAF weather

Enter ICAO airport designator
Station Type Date Time Source
KLEB METAR 2024/04/17 17:53 UTC NOAA

KLEB 171753Z VRB05KT 10SM CLR 14/00 A3013 RMK AO2 SLP202 T01390000 10144 20033 58023


Station Type Date Time Source
KLEB Decoded METAR 2024/04/17 17:53 UTC NOAA

LEBANON MUNICIPAL AIRPORT, NH, United States (KLEB) 43-38N 072-18W 171M
Apr 17, 2024 - 01:53 PM EDT / 2024.04.17 1753 UTC
Wind: Variable at 6 MPH (5 KT):0
Visibility: 10 mile(s):0
Sky conditions: clear
Temperature: 57.0 F (13.9 C)
Dew Point: 32.0 F (0.0 C)
Relative Humidity: 38%
Pressure (altimeter): 30.13 in. Hg (1020 hPa)
Pressure tendency: 0.07 inches (2.3 hPa) lower than three hours ago
ob: KLEB 171753Z VRB05KT 10SM CLR 14/00 A3013 RMK AO2 SLP202 T01390000 10144 20033 58023
cycle: 18

Station Type Date Time Source
KLEB TAF 2024/04/17 18:36 UTC NOAA